Time;durP1;ratioP1;P1;durP2;ratioP2;P2;SDS_P1;SDS_P2;PMS_P1;PMS_P2;Temp;Humidity;BMP_temperature;BMP_pressure;BME280_temperature;BME280_humidity;BME280_pressure;Samples;Min_cycle;Max_cycle;Signal;HPM_P1;HPM_P2
2021/04/05 00:02:20;;;;;;;34.43;22.73;;;5.70;99.90;;;;;;4961826;28;20196;-75
2021/04/05 00:04:46;;;;;;;34.47;23.07;;;5.80;99.90;;;;;;4994246;28;20227;-73
2021/04/05 00:07:12;;;;;;;27.60;18.37;;;5.70;99.90;;;;;;4962156;28;20198;-76
2021/04/05 00:09:39;;;;;;;30.13;20.30;;;;;;;;;;4961941;28;20225;-75
2021/04/05 00:12:06;;;;;;;31.73;18.80;;;5.80;99.90;;;;;;4977898;28;20592;-76
2021/04/05 00:14:33;;;;;;;31.00;21.00;;;;;;;;;;4994131;28;20191;-75
2021/04/05 00:16:58;;;;;;;33.80;20.13;;;5.70;99.90;;;;;;4994407;28;20187;-75
2021/04/05 00:19:24;;;;;;;32.40;20.00;;;;;;;;;;4995446;28;20606;-75
2021/04/05 00:21:50;;;;;;;28.27;17.00;;;;;;;;;;4993833;28;20203;-75
2021/04/05 00:24:16;;;;;;;24.00;15.03;;;5.70;99.90;;;;;;4993941;28;20189;-75
2021/04/05 00:26:41;;;;;;;24.57;14.93;;;5.70;99.90;;;;;;4994241;28;20587;-74
2021/04/05 00:29:07;;;;;;;26.00;17.30;;;;;;;;;;4977602;28;20656;-77
2021/04/05 00:31:33;;;;;;;20.00;12.53;;;5.90;99.90;;;;;;4996410;28;20183;-77
2021/04/05 00:33:58;;;;;;;28.77;17.83;;;6.00;99.90;;;;;;4977477;28;20187;-74
2021/04/05 00:36:24;;;;;;;27.10;14.83;;;5.90;99.90;;;;;;4994952;28;20258;-74
2021/04/05 00:38:49;;;;;;;31.37;18.10;;;5.90;99.90;;;;;;4977239;28;20194;-75
2021/04/05 00:41:17;;;;;;;23.93;14.07;;;;;;;;;;4993985;28;20194;-74
2021/04/05 00:43:47;;;;;;;28.60;16.50;;;;;;;;;;4977527;28;20212;-77
2021/04/05 00:46:15;;;;;;;24.90;17.07;;;;;;;;;;4993614;28;20247;-74
2021/04/05 00:48:43;;;;;;;29.73;15.40;;;;;;;;;;4993154;28;20553;-75
2021/04/05 00:51:10;;;;;;;27.37;15.40;;;;;;;;;;4993383;28;20549;-75
2021/04/05 00:53:37;;;;;;;28.87;16.40;;;;;;;;;;4993405;28;20300;-77
2021/04/05 00:56:03;;;;;;;27.50;16.67;;;;;;;;;;4993651;28;20703;-74
2021/04/05 00:58:29;;;;;;;26.07;15.60;;;;;;;;;;4992478;28;20183;-74
2021/04/05 01:00:59;;;;;;;28.50;15.47;;;;;;;;;;4993338;28;20261;-74
2021/04/05 01:03:25;;;;;;;26.87;15.60;;;;;;;;;;4977308;28;20211;-75
2021/04/05 01:05:54;;;;;;;27.67;14.97;;;;;;;;;;4994240;28;20202;-74
2021/04/05 01:08:20;;;;;;;26.83;15.17;;;5.80;99.90;;;;;;4992927;28;20178;-74
2021/04/05 01:10:48;;;;;;;26.10;14.93;;;;;;;;;;4993181;28;20665;-76
2021/04/05 01:13:14;;;;;;;27.00;16.07;;;5.80;99.90;;;;;;4992896;28;20211;-76
2021/04/05 01:15:40;;;;;;;28.33;16.53;;;5.80;99.90;;;;;;4976820;28;20719;-74
2021/04/05 01:18:08;;;;;;;25.77;16.53;;;;;;;;;;4960591;28;20184;-75
2021/04/05 01:20:33;;;;;;;36.53;16.63;;;5.70;99.90;;;;;;4992710;28;20218;-74
2021/04/05 01:22:59;;;;;;;30.00;16.07;;;5.80;99.90;;;;;;4976690;28;20227;-75
2021/04/05 01:25:27;;;;;;;30.20;15.43;;;;;;;;;;4976522;28;20208;-74
2021/04/05 01:27:54;;;;;;;27.73;16.10;;;;;;;;;;4992495;28;20183;-74
2021/04/05 01:30:32;;;;;;;26.77;14.07;;;;;;;;;;4992877;28;20180;-74
2021/04/05 01:33:00;;;;;;;29.80;15.87;;;5.90;99.90;;;;;;4993767;28;20220;-74
2021/04/05 01:35:25;;;;;;;21.83;13.67;;;5.70;99.90;;;;;;4992608;28;20654;-74
2021/04/05 01:37:51;;;;;;;31.70;15.47;;;5.80;99.90;;;;;;4976106;28;20193;-74
2021/04/05 01:40:18;;;;;;;28.60;15.17;;;;;;;;;;4992619;28;20192;-75
2021/04/05 01:42:44;;;;;;;26.00;14.20;;;;;;;;;;4993672;28;20552;-74
2021/04/05 01:45:11;;;;;;;23.73;14.47;;;;;;;;;;4992289;28;20246;-74
2021/04/05 01:47:39;;;;;;;28.70;15.17;;;;;;;;;;4992090;28;20176;-74
2021/04/05 01:50:05;;;;;;;28.77;15.60;;;5.70;99.90;;;;;;4992362;28;20178;-74
2021/04/05 01:52:30;;;;;;;26.30;14.17;;;5.90;99.90;;;;;;4975926;28;20651;-74
2021/04/05 01:55:02;;;;;;;29.63;16.00;;;;;;;;;;4992156;28;20267;-75
2021/04/05 01:57:28;;;;;;;26.77;14.57;;;;;;;;;;4976142;28;20275;-74
2021/04/05 01:59:55;;;;;;;27.93;15.57;;;;;;;;;;4975967;28;20274;-74
2021/04/05 02:02:21;;;;;;;27.57;14.30;;;5.80;99.90;;;;;;4992117;28;20203;-74
2021/04/05 02:04:46;;;;;;;27.27;15.53;;;6.00;99.90;;;;;;4975785;28;20267;-74
2021/04/05 02:07:14;;;;;;;28.00;13.90;;;;;;;;;;4991864;28;20184;-74
2021/04/05 02:09:41;;;;;;;30.07;15.73;;;;;;;;;;4975367;28;20604;-75
2021/04/05 02:12:09;;;;;;;31.20;16.00;;;;;;;;;;4991663;28;20213;-74
2021/04/05 02:14:36;;;;;;;30.00;14.40;;;5.70;99.90;;;;;;4991962;28;20664;-74
2021/04/05 02:17:02;;;;;;;28.53;15.60;;;6.00;99.90;;;;;;4975546;28;20187;-75
2021/04/05 02:19:28;;;;;;;28.93;14.67;;;6.00;99.90;;;;;;4991936;28;20199;-75
2021/04/05 02:21:53;;;;;;;32.23;16.60;;;6.10;99.90;;;;;;4975444;28;20208;-77
2021/04/05 02:24:21;;;;;;;26.57;16.13;;;6.00;99.90;;;;;;4975735;28;20237;-74
2021/04/05 02:26:48;;;;;;;29.70;15.37;;;;;;;;;;4975698;28;20305;-75
2021/04/05 02:29:18;;;;;;;29.90;15.17;;;6.00;99.90;;;;;;4992636;28;20179;-74
2021/04/05 02:31:46;;;;;;;27.83;12.87;;;;;;;;;;4991751;28;20200;-75
2021/04/05 02:34:15;;;;;;;26.40;15.20;;;;;;;;;;4991828;28;20582;-75
2021/04/05 02:36:43;;;;;;;27.93;15.13;;;;;;;;;;4991534;28;20186;-74
2021/04/05 02:39:12;;;;;;;28.10;15.13;;;;;;;;;;4991524;28;20179;-72
2021/04/05 02:41:43;;;;;;;31.47;15.53;;;;;;;;;;4991632;28;20574;-74
2021/04/05 02:44:11;;;;;;;31.13;15.73;;;;;;;;;;4991698;28;20183;-75
2021/04/05 02:46:39;;;;;;;24.70;14.67;;;;;;;;;;4991711;28;20222;-72
2021/04/05 02:49:07;;;;;;;24.77;15.47;;;;;;;;;;4991492;28;20556;-74
2021/04/05 02:51:35;;;;;;;24.83;15.30;;;;;;;;;;4992624;28;20585;-74
2021/04/05 02:54:02;;;;;;;30.67;15.37;;;;;;;;;;4991400;28;20549;-74
2021/04/05 02:56:29;;;;;;;28.60;15.33;;;;;;;;;;4975375;28;20186;-75
2021/04/05 02:58:58;;;;;;;24.40;14.97;;;;;;;;;;4990859;28;20188;-74
2021/04/05 03:01:26;;;;;;;22.80;11.87;;;;;;;;;;4991167;28;20267;-72
2021/04/05 03:03:56;;;;;;;29.10;15.43;;;6.20;99.90;;;;;;4992767;28;20265;-74
2021/04/05 03:06:25;;;;;;;24.43;13.67;;;;;;;;;;4975388;28;20569;-74
2021/04/05 03:08:52;;;;;;;27.27;14.37;;;;;;;;;;4991235;28;20273;-78
2021/04/05 03:11:21;;;;;;;31.37;16.40;;;;;;;;;;4991370;28;20237;-74
2021/04/05 03:13:49;;;;;;;27.70;15.63;;;;;;;;;;4991140;28;20192;-76
2021/04/05 03:16:18;;;;;;;28.73;15.10;;;;;;;;;;4991300;28;20262;-74
2021/04/05 03:18:47;;;;;;;27.07;15.77;;;;;;;;;;4991015;28;20263;-74
2021/04/05 03:21:14;;;;;;;23.27;14.73;;;;;;;;;;4977256;28;20215;-74
2021/04/05 03:23:41;;;;;;;24.83;14.77;;;;;;;;;;4995129;28;20212;-75
2021/04/05 03:26:06;;;;;;;26.37;15.03;;;6.60;99.90;;;;;;4979005;28;20213;-74
2021/04/05 03:28:32;;;;;;;26.20;14.73;;;6.50;99.90;;;;;;4978691;28;20203;-74
2021/04/05 03:31:05;;;;;;;24.97;14.13;;;6.50;99.90;;;;;;4995080;28;20180;-75
2021/04/05 03:33:43;;;;;;;30.57;15.30;;;6.10;99.90;;;;;;4979162;28;20202;-75
2021/04/05 03:36:13;;;;;;;21.43;11.97;;;6.50;99.90;;;;;;4996442;28;20608;-74
2021/04/05 03:38:39;;;;;;;26.90;15.30;;;6.60;99.90;;;;;;4978676;28;20218;-75
2021/04/05 03:41:06;;;;;;;25.10;13.17;;;6.50;99.90;;;;;;4962567;28;20246;-75
2021/04/05 03:43:41;;;;;;;29.33;14.63;;;6.50;99.90;;;;;;4962450;28;20648;-75
2021/04/05 03:46:12;;;;;;;24.83;12.77;;;6.50;99.90;;;;;;4962870;28;20573;-75
2021/04/05 03:48:43;;;;;;;26.47;14.13;;;6.50;99.90;;;;;;4994541;28;20175;-74
2021/04/05 03:51:17;;;;;;;30.63;16.10;;;6.50;99.90;;;;;;4979081;28;20183;-74
2021/04/05 03:54:03;;;;;;;29.90;15.70;;;6.60;99.90;;;;;;4979407;28;20568;-74
2021/04/05 03:56:51;;;;;;;27.77;14.93;;;6.60;99.90;;;;;;4978628;28;20177;-75
2021/04/05 03:59:24;;;;;;;31.00;14.87;;;;;;;;;;4963017;28;20187;-74
2021/04/05 04:01:54;;;;;;;28.07;14.67;;;;;;;;;;4994448;28;20207;-75
2021/04/05 04:04:29;;;;;;;29.40;16.67;;;;;;;;;;4978451;28;20266;-75
2021/04/05 04:09:21;;;;;;;30.73;16.23;;;6.50;99.90;;;;;;4994465;28;20196;-75
2021/04/05 04:11:49;;;;;;;32.03;15.97;;;6.60;99.90;;;;;;4977789;28;20266;-75
2021/04/05 04:14:16;;;;;;;30.07;13.73;;;;;;;;;;4994338;28;20176;-74
2021/04/05 04:16:43;;;;;;;28.57;14.93;;;6.50;99.90;;;;;;4994223;28;20644;-75
2021/04/05 04:19:08;;;;;;;26.43;15.30;;;6.70;99.90;;;;;;4977951;28;20198;-76
2021/04/05 04:21:35;;;;;;;29.07;17.00;;;6.60;99.90;;;;;;4977855;28;20188;-74
2021/04/05 04:24:01;;;;;;;30.33;16.13;;;6.60;99.90;;;;;;4961653;28;20286;-74
2021/04/05 04:26:30;;;;;;;28.33;14.37;;;;;;;;;;4978005;28;20211;-76
2021/04/05 04:28:56;;;;;;;31.63;16.27;;;;;;;;;;4993949;28;20703;-75
2021/04/05 04:31:21;;;;;;;37.00;17.90;;;6.50;99.90;;;;;;4994038;28;20180;-75
2021/04/05 04:33:48;;;;;;;32.30;17.47;;;6.70;99.90;;;;;;4977065;28;20182;-75
2021/04/05 04:36:20;;;;;;;32.70;17.07;;;6.70;99.90;;;;;;4977851;28;20191;-75
2021/04/05 04:38:48;;;;;;;33.73;17.60;;;;;;;;;;4978596;28;20210;-74
2021/04/05 04:41:23;;;;;;;30.57;17.00;;;;;;;;;;4977797;28;20191;-74
2021/04/05 04:44:02;;;;;;;25.90;16.20;;;;;;;;;;4977703;28;20187;-75
2021/04/05 04:46:29;;;;;;;32.87;17.43;;;;;;;;;;4993474;28;20196;-76
2021/04/05 04:48:58;;;;;;;30.73;16.57;;;;;;;;;;4993439;28;20176;-74
2021/04/05 04:51:24;;;;;;;28.83;16.20;;;;;;;;;;4993841;28;20215;-73
2021/04/05 04:53:51;;;;;;;34.20;15.30;;;;;;;;;;4978031;28;20275;-74
2021/04/05 04:56:17;;;;;;;33.67;17.40;;;;;;;;;;4994561;28;20724;-74
2021/04/05 04:58:43;;;;;;;32.63;16.50;;;;;;;;;;4992941;28;20237;-77
2021/04/05 05:01:11;;;;;;;32.10;16.70;;;;;;;;;;4993260;28;20267;-72
2021/04/05 05:03:39;;;;;;;32.17;17.70;;;;;;;;;;4977523;28;20635;-72
2021/04/05 05:06:07;;;;;;;25.93;16.70;;;6.70;99.90;;;;;;4993272;28;20214;-75
2021/04/05 05:08:33;;;;;;;27.87;16.03;;;6.80;99.90;;;;;;4993024;28;20181;-77
2021/04/05 05:10:58;;;;;;;31.40;16.83;;;6.80;99.90;;;;;;4993236;28;20184;-74
2021/04/05 05:13:24;;;;;;;33.77;16.30;;;6.80;99.90;;;;;;4977200;28;20298;-75
2021/04/05 05:15:49;;;;;;;31.57;16.83;;;6.80;99.90;;;;;;4976620;28;20273;-75
2021/04/05 05:18:15;;;;;;;34.20;16.53;;;6.80;99.90;;;;;;4960194;28;20215;-75
2021/04/05 05:20:40;;;;;;;32.17;17.13;;;6.80;99.90;;;;;;4976671;28;20183;-75
2021/04/05 05:23:06;;;;;;;30.63;16.97;;;6.70;99.90;;;;;;4976567;28;20291;-75
2021/04/05 05:25:32;;;;;;;37.03;16.20;;;6.70;99.90;;;;;;4976695;28;20271;-75
2021/04/05 05:28:04;;;;;;;29.60;15.97;;;6.70;99.90;;;;;;4976385;28;20177;-75
2021/04/05 05:30:30;;;;;;;34.03;17.47;;;6.70;99.90;;;;;;4961128;28;20570;-75
2021/04/05 05:32:55;;;;;;;34.87;17.10;;;6.70;99.90;;;;;;4992132;28;20298;-75
2021/04/05 05:35:22;;;;;;;35.33;17.73;;;6.70;99.90;;;;;;4976475;28;20179;-75
2021/04/05 05:37:47;;;;;;;31.60;17.43;;;6.70;99.90;;;;;;4976226;28;20386;-75
2021/04/05 05:40:27;;;;;;;32.97;17.17;;;6.60;99.90;;;;;;4976356;28;20185;-75
2021/04/05 05:43:17;;;;;;;29.60;15.50;;;6.60;99.90;;;;;;4977047;28;20284;-75
2021/04/05 05:46:03;;;;;;;32.37;17.13;;;6.60;99.90;;;;;;4992191;28;20215;-75
2021/04/05 05:48:51;;;;;;;30.00;15.20;;;6.60;99.90;;;;;;4992884;28;20195;-75
2021/04/05 05:51:40;;;;;;;36.47;17.30;;;6.70;99.90;;;;;;4992215;28;20190;-75
2021/04/05 05:54:44;;;;;;;31.70;15.80;;;6.60;99.90;;;;;;4977797;28;20176;-75
2021/04/05 05:57:21;;;;;;;28.30;14.10;;;6.60;99.90;;;;;;4992071;28;20198;-73
2021/04/05 05:59:53;;;;;;;30.93;16.97;;;6.60;99.90;;;;;;4992038;28;20601;-75
2021/04/05 06:02:48;;;;;;;35.17;16.77;;;6.70;99.90;;;;;;4991917;28;20207;-75
2021/04/05 06:05:28;;;;;;;32.20;15.77;;;6.60;99.90;;;;;;4993212;28;20177;-75
2021/04/05 06:08:13;;;;;;;25.13;13.83;;;;;;;;;;4992714;28;20207;-75
2021/04/05 06:10:58;;;;;;;27.50;13.90;;;;;;;;;;4992044;28;20187;-74
2021/04/05 06:13:35;;;;;;;32.10;16.77;;;6.60;99.90;;;;;;4992914;28;20215;-76
2021/04/05 06:16:33;;;;;;;32.23;16.00;;;6.60;99.90;;;;;;4976968;28;20189;-76
2021/04/05 06:18:58;;;;;;;28.97;15.63;;;6.60;99.90;;;;;;4991267;28;20173;-75
2021/04/05 06:21:30;;;;;;;26.67;14.53;;;6.70;99.90;;;;;;4992920;28;20191;-75
2021/04/05 06:23:56;;;;;;;31.03;16.33;;;6.70;99.90;;;;;;4999317;28;20190;-75
2021/04/05 06:26:39;;;;;;;29.57;15.73;;;6.70;99.90;;;;;;4999460;28;20242;-75
2021/04/05 06:29:29;;;;;;;26.70;16.23;;;6.70;99.90;;;;;;4971017;28;20240;-75
2021/04/05 06:32:16;;;;;;;26.93;15.70;;;6.70;99.90;;;;;;4972197;28;20564;-76
2021/04/05 06:35:13;;;;;;;34.13;16.57;;;6.80;99.90;;;;;;4973231;28;20633;-75
2021/04/05 06:37:43;;;;;;;31.97;16.93;;;6.80;99.90;;;;;;4972139;28;20188;-75
2021/04/05 06:40:13;;;;;;;34.30;16.93;;;6.90;99.90;;;;;;4973299;28;20235;-75
2021/04/05 06:43:16;;;;;;;35.13;17.37;;;6.90;99.90;;;;;;4956329;28;20694;-75
2021/04/05 06:46:15;;;;;;;30.20;15.83;;;6.80;99.90;;;;;;4972863;28;20176;-75
2021/04/05 06:49:17;;;;;;;28.83;16.93;;;6.80;99.90;;;;;;4973092;28;20175;-75
2021/04/05 06:51:53;;;;;;;28.07;14.93;;;6.70;99.90;;;;;;4949268;28;20214;-76
2021/04/05 06:54:39;;;;;;;16.07;7.80;;;6.50;99.90;;;;;;4971966;28;20206;-76
2021/04/05 06:57:12;;;;;;;6.27;3.67;;;;;;;;;;4972980;28;20208;-76
2021/04/05 06:59:58;;;;;;;7.57;3.50;;;5.10;99.90;;;;;;4972622;28;20643;-76
2021/04/05 07:02:27;;;;;;;3.57;2.40;;;5.00;99.90;;;;;;4971899;28;20193;-75
2021/04/05 07:05:33;;;;;;;5.00;2.20;;;4.90;99.90;;;;;;4972987;28;20174;-76
2021/04/05 07:08:24;;;;;;;4.33;1.77;;;4.80;99.90;;;;;;4972741;28;20210;-76
2021/04/05 07:11:24;;;;;;;4.13;1.93;;;4.70;99.90;;;;;;4953225;28;20199;-76
2021/04/05 07:14:22;;;;;;;3.93;1.80;;;4.70;99.90;;;;;;4957268;28;20177;-75
2021/04/05 07:16:59;;;;;;;1.97;1.23;;;4.50;99.90;;;;;;4968521;28;20362;-76
2021/04/05 07:19:33;;;;;;;4.10;1.10;;;4.60;99.90;;;;;;4971926;28;20540;-76
2021/04/05 07:22:11;;;;;;;3.63;1.40;;;4.40;99.90;;;;;;4972585;28;20284;-76
2021/04/05 07:24:48;;;;;;;3.80;1.47;;;4.60;99.90;;;;;;4971633;28;20255;-76
2021/04/05 07:27:16;;;;;;;4.57;1.80;;;4.50;99.90;;;;;;4971692;28;20478;-76
2021/04/05 07:29:52;;;;;;;2.37;1.30;;;;;;;;;;4955707;28;20185;-76
2021/04/05 07:32:36;;;;;;;4.33;1.30;;;5.50;99.90;;;;;;4971828;28;20222;-77
2021/04/05 07:35:02;;;;;;;2.30;1.10;;;;;;;;;;4973015;28;20181;-76
2021/04/05 07:37:53;;;;;;;2.50;1.00;;;4.60;99.90;;;;;;4972555;28;20201;-76
2021/04/05 07:40:44;;;;;;;1.97;0.87;;;4.50;99.90;;;;;;4972850;28;20176;-77
2021/04/05 07:43:31;;;;;;;1.37;0.80;;;4.60;99.90;;;;;;4972699;28;20205;-76
2021/04/05 07:46:26;;;;;;;1.70;0.90;;;4.50;99.90;;;;;;4971280;28;20241;-76
2021/04/05 07:49:00;;;;;;;4.13;1.07;;;4.50;99.90;;;;;;4937235;28;20667;-76
2021/04/05 07:51:46;;;;;;;3.73;1.40;;;4.50;99.90;;;;;;4972617;28;20176;-76
2021/04/05 07:54:12;;;;;;;1.60;1.00;;;4.50;99.90;;;;;;4956790;28;20664;-76
2021/04/05 07:56:47;;;;;;;3.33;1.33;;;4.50;99.90;;;;;;4955153;28;20179;-76
2021/04/05 07:59:21;;;;;;;3.37;1.20;;;4.60;99.90;;;;;;4971038;28;20184;-76
2021/04/05 08:02:16;;;;;;;2.97;1.20;;;4.60;99.90;;;;;;4940347;28;20199;-76
2021/04/05 08:04:45;;;;;;;3.63;0.90;;;4.60;99.90;;;;;;4958723;28;20171;-76
2021/04/05 08:07:32;;;;;;;1.77;0.90;;;4.60;99.90;;;;;;4971652;28;20232;-77
2021/04/05 08:10:16;;;;;;;2.13;1.00;;;4.60;99.90;;;;;;4974219;28;20190;-76
2021/04/05 08:13:04;;;;;;;1.93;0.87;;;4.50;99.90;;;;;;4959456;28;20243;-76
2021/04/05 08:15:42;;;;;;;2.87;1.00;;;4.60;99.90;;;;;;4974641;28;20674;-76
2021/04/05 08:18:14;;;;;;;4.30;1.07;;;4.50;99.90;;;;;;4959245;28;20235;-76
2021/04/05 08:21:06;;;;;;;1.63;1.00;;;4.60;99.90;;;;;;4974449;28;20215;-76
2021/04/05 08:24:06;;;;;;;0.97;0.60;;;4.40;99.90;;;;;;4959461;28;20185;-76
2021/04/05 08:26:48;;;;;;;1.30;0.60;;;4.40;99.90;;;;;;4975349;28;20250;-76
2021/04/05 08:29:37;;;;;;;0.60;0.60;;;4.30;99.90;;;;;;4959841;28;20221;-75
2021/04/05 08:32:09;;;;;;;0.80;0.70;;;4.20;99.90;;;;;;4975453;28;20230;-76
2021/04/05 08:34:53;;;;;;;1.03;0.70;;;4.20;99.90;;;;;;4958314;28;20323;-76
2021/04/05 08:37:41;;;;;;;2.37;0.73;;;4.10;99.90;;;;;;4975456;28;20325;-76
2021/04/05 08:40:18;;;;;;;5.47;0.87;;;3.90;99.90;;;;;;4975394;28;20184;-77
2021/04/05 08:43:15;;;;;;;1.73;0.90;;;3.60;99.90;;;;;;4974171;28;20245;-75
2021/04/05 08:45:45;;;;;;;6.03;1.33;;;3.60;99.90;;;;;;4974426;28;20634;-75
2021/04/05 08:48:13;;;;;;;7.03;1.00;;;3.50;99.90;;;;;;4957566;28;20188;-75
2021/04/05 08:50:40;;;;;;;9.00;1.57;;;3.50;99.90;;;;;;4958142;28;20280;-76
2021/04/05 08:53:07;;;;;;;4.40;1.33;;;3.50;99.90;;;;;;4957863;28;20227;-75
2021/04/05 08:55:32;;;;;;;7.40;1.60;;;3.60;99.90;;;;;;4941957;28;20179;-76
2021/04/05 08:58:16;;;;;;;7.53;1.67;;;3.90;99.90;;;;;;4957471;28;20183;-76
2021/04/05 09:00:46;;;;;;;3.70;1.23;;;4.00;99.90;;;;;;4958223;28;20644;-76
2021/04/05 09:03:12;;;;;;;5.83;1.20;;;4.20;99.90;;;;;;4957896;28;20228;-74
2021/04/05 09:05:41;;;;;;;3.70;1.20;;;4.30;99.90;;;;;;4957726;28;20217;-76
2021/04/05 09:08:13;;;;;;;8.23;1.50;;;4.80;99.90;;;;;;4957424;28;20277;-76
2021/04/05 09:10:51;;;;;;;5.00;1.47;;;4.60;99.90;;;;;;4957555;28;20180;-74
2021/04/05 09:13:22;;;;;;;6.33;1.40;;;4.80;99.90;;;;;;4941807;28;20211;-76
2021/04/05 09:16:26;;;;;;;6.93;1.57;;;4.90;99.90;;;;;;4957672;28;20204;-76
2021/04/05 09:19:16;;;;;;;7.07;1.63;;;4.80;99.90;;;;;;4963056;28;20243;-75
2021/04/05 09:22:13;;;;;;;7.50;1.73;;;4.70;99.90;;;;;;4973272;28;20206;-75
2021/04/05 09:25:00;;;;;;;9.47;1.80;;;4.60;99.90;;;;;;4974848;28;20246;-75
2021/04/05 09:28:03;;;;;;;7.50;1.60;;;4.50;99.90;;;;;;4973138;28;20206;-76
2021/04/05 09:30:45;;;;;;;7.00;1.60;;;4.40;99.90;;;;;;4973177;28;20188;-76
2021/04/05 09:33:52;;;;;;;8.00;1.30;;;4.40;99.90;;;;;;4957588;28;20195;-75
2021/04/05 09:36:55;;;;;;;6.23;1.40;;;4.40;99.90;;;;;;4973345;28;20180;-75
2021/04/05 09:39:54;;;;;;;6.97;1.77;;;4.50;99.90;;;;;;4974127;28;20184;-75
2021/04/05 09:42:37;;;;;;;5.33;1.37;;;4.60;99.90;;;;;;4972812;28;20557;-76
2021/04/05 09:45:35;;;;;;;6.63;1.70;;;4.70;99.90;;;;;;4973071;28;20175;-75
2021/04/05 09:48:18;;;;;;;4.67;1.60;;;4.80;99.90;;;;;;4969295;28;20783;-76
2021/04/05 09:51:11;;;;;;;7.70;1.77;;;4.90;99.90;;;;;;4972566;28;20263;-75
2021/04/05 09:54:11;;;;;;;9.57;1.93;;;4.90;99.90;;;;;;4972861;28;20199;-75
2021/04/05 09:56:41;;;;;;;6.40;1.73;;;4.90;99.90;;;;;;4973025;28;20176;-75
2021/04/05 09:59:08;;;;;;;10.50;2.13;;;5.00;99.90;;;;;;4940837;28;20644;-76
2021/04/05 10:01:34;;;;;;;7.23;2.07;;;5.10;99.90;;;;;;4972335;28;20570;-73
2021/04/05 10:04:10;;;;;;;7.40;1.83;;;5.30;99.90;;;;;;4956916;28;20250;-73
2021/04/05 10:06:36;;;;;;;7.00;1.63;;;5.40;99.90;;;;;;4972498;28;20203;-74
2021/04/05 10:09:06;;;;;;;5.43;1.40;;;5.30;99.90;;;;;;4956273;28;20172;-75
2021/04/05 10:11:36;;;;;;;7.73;1.73;;;5.10;99.90;;;;;;4972184;28;20175;-75
2021/04/05 10:14:05;;;;;;;8.40;1.70;;;4.90;99.90;;;;;;4956627;28;20282;-76
2021/04/05 10:16:32;;;;;;;4.07;1.03;;;4.70;99.90;;;;;;4940650;28;20637;-76
2021/04/05 10:19:01;;;;;;;3.87;0.90;;;4.10;99.90;;;;;;4956234;28;20195;-75
2021/04/05 10:21:26;;;;;;;1.77;0.70;;;3.70;99.90;;;;;;4956504;28;20179;-76
2021/04/05 10:23:52;;;;;;;1.70;0.47;;;2.90;99.90;;;;;;4972213;28;20242;-76
2021/04/05 10:26:18;;;;;;;2.77;0.83;;;2.70;99.90;;;;;;4955932;28;20227;-76
2021/04/05 10:28:44;;;;;;;1.10;0.50;;;2.40;99.90;;;;;;4939989;28;20231;-78
2021/04/05 10:31:19;;;;;;;3.07;0.93;;;2.20;99.90;;;;;;4955416;28;20232;-77
2021/04/05 10:33:50;;;;;;;3.27;0.73;;;2.40;99.90;;;;;;4972223;28;20288;-76
2021/04/05 10:36:22;;;;;;;3.23;0.80;;;2.70;99.90;;;;;;4956647;28;20199;-76
2021/04/05 10:38:48;;;;;;;3.13;0.93;;;2.80;99.90;;;;;;4971788;28;20188;-75
2021/04/05 10:41:17;;;;;;;1.87;0.77;;;3.10;99.90;;;;;;4956052;28;20471;-75
2021/04/05 10:43:55;;;;;;;2.97;1.00;;;3.30;99.90;;;;;;4940096;28;20248;-76
2021/04/05 10:46:31;;;;;;;4.63;1.30;;;3.40;99.90;;;;;;4940011;28;20263;-77
2021/04/05 10:49:08;;;;;;;4.87;0.97;;;3.60;99.90;;;;;;4955796;28;20175;-77
2021/04/05 10:51:39;;;;;;;3.47;1.10;;;3.80;99.90;;;;;;4971831;28;20687;-78
2021/04/05 10:54:14;;;;;;;1.77;0.87;;;3.90;99.90;;;;;;4972910;28;20173;-78
2021/04/05 10:56:48;;;;;;;2.57;1.00;;;4.00;99.90;;;;;;4956902;28;20243;-78
2021/04/05 10:59:22;;;;;;;4.53;1.30;;;4.20;99.90;;;;;;4971608;28;20177;-77
2021/04/05 11:01:51;;;;;;;3.23;1.00;;;4.20;99.90;;;;;;4940149;28;20204;-77
2021/04/05 11:04:19;;;;;;;5.20;1.20;;;4.30;99.90;;;;;;4955816;28;20192;-76
2021/04/05 11:06:44;;;;;;;5.17;1.10;;;4.10;99.90;;;;;;4955620;28;20199;-75
2021/04/05 11:09:10;;;;;;;4.87;0.90;;;4.20;99.90;;;;;;4971418;28;20204;-77
2021/04/05 11:11:37;;;;;;;4.50;1.23;;;4.30;99.90;;;;;;4939465;28;20236;-78
2021/04/05 11:14:04;;;;;;;6.43;1.30;;;4.50;99.90;;;;;;4998844;23;20233;-78
2021/04/05 11:16:30;;;;;;;4.00;1.10;;;4.30;99.90;;;;;;4960401;28;20644;-78
2021/04/05 11:18:59;;;;;;;4.00;1.20;;;4.30;99.90;;;;;;4975271;28;20190;-78
2021/04/05 11:21:47;;;;;;;5.70;0.93;;;4.20;99.90;;;;;;4959623;28;20215;-78
2021/04/05 11:24:13;;;;;;;3.00;1.30;;;4.10;99.90;;;;;;4976389;28;20204;-78
2021/04/05 11:26:39;;;;;;;3.10;1.13;;;4.10;99.90;;;;;;4975141;28;20210;-78
2021/04/05 11:29:06;;;;;;;4.77;1.07;;;4.00;99.90;;;;;;4959199;28;20179;-78
2021/04/05 11:31:37;;;;;;;3.57;1.10;;;4.10;99.90;;;;;;4959734;28;20247;-78
2021/04/05 11:34:02;;;;;;;1.80;0.97;;;4.20;99.90;;;;;;4959851;28;20200;-78
2021/04/05 11:36:45;;;;;;;5.70;1.20;;;4.30;99.90;;;;;;4961390;28;20179;-78
2021/04/05 11:39:15;;;;;;;6.10;1.33;;;4.50;99.90;;;;;;4963056;28;20183;-78
2021/04/05 11:41:41;;;;;;;4.03;1.00;;;4.90;99.90;;;;;;4963033;28;20188;-78
2021/04/05 11:44:07;;;;;;;8.47;1.50;;;5.20;99.90;;;;;;4981402;28;20211;-79
2021/04/05 11:46:34;;;;;;;4.07;1.50;;;5.20;99.90;;;;;;4980995;28;20209;-79
2021/04/05 11:49:12;;;;;;;6.30;1.57;;;5.50;99.90;;;;;;4964939;28;20330;-78
2021/04/05 11:51:55;;;;;;;4.70;1.23;;;5.70;99.90;;;;;;4981165;28;20203;-78
2021/04/05 11:54:42;;;;;;;4.80;1.60;;;5.50;99.90;;;;;;4981770;28;20283;-78
2021/04/05 11:57:09;;;;;;;3.63;1.10;;;5.30;99.90;;;;;;4997088;28;20579;-78
2021/04/05 11:59:37;;;;;;;4.53;1.40;;;5.30;99.90;;;;;;4980183;28;20556;-78
2021/04/05 12:02:03;;;;;;;5.43;1.20;;;4.50;99.90;;;;;;4978803;28;20184;-78
2021/04/05 12:04:39;;;;;;;5.50;0.93;;;3.60;99.90;;;;;;4962376;28;20677;-77
2021/04/05 12:07:06;;;;;;;6.23;1.40;;;3.00;99.90;;;;;;4978469;28;20207;-78
2021/04/05 12:09:58;;;;;;;3.40;1.17;;;2.90;99.90;;;;;;4977952;28;20195;-78
2021/04/05 12:13:19;;;;;;;7.13;1.30;;;3.40;99.90;;;;;;4980918;28;20180;-78
2021/04/05 12:15:46;;;;;;;5.07;0.80;;;4.20;99.90;;;;;;4970521;28;20209;-78
2021/04/05 12:18:12;;;;;;;2.57;0.97;;;4.90;99.90;;;;;;4964587;28;20273;-79
2021/04/05 12:20:37;;;;;;;3.97;1.30;;;5.30;99.90;;;;;;4980489;28;20263;-79
2021/04/05 12:23:09;;;;;;;4.77;0.97;;;5.60;99.90;;;;;;4964413;28;20217;-80
2021/04/05 12:25:44;;;;;;;3.00;1.10;;;5.90;99.90;;;;;;4980833;28;20179;-79
2021/04/05 12:28:11;;;;;;;4.73;0.90;;;6.00;99.90;;;;;;4964329;28;20218;-78
2021/04/05 12:30:37;;;;;;;5.43;1.10;;;6.10;99.90;;;;;;4964906;28;20632;-78
2021/04/05 12:33:03;;;;;;;2.57;1.00;;;6.30;99.90;;;;;;4964067;28;20203;-79
2021/04/05 12:35:29;;;;;;;3.87;1.23;;;6.30;99.90;;;;;;4980563;28;20177;-79
2021/04/05 12:37:56;;;;;;;4.50;1.40;;;6.70;99.90;;;;;;4996705;28;20550;-80
2021/04/05 12:40:23;;;;;;;3.07;0.97;;;6.80;99.90;;;;;;4962461;28;20187;-77
2021/04/05 12:42:48;;;;;;;1.60;0.90;;;6.80;99.90;;;;;;4993982;28;20196;-77
2021/04/05 12:45:14;;;;;;;3.43;1.00;;;6.40;99.90;;;;;;4993791;28;20184;-77
2021/04/05 12:47:40;;;;;;;6.00;1.00;;;6.60;99.90;;;;;;4977238;28;20291;-78
2021/04/05 12:50:07;;;;;;;3.00;0.73;;;7.20;99.90;;;;;;4977313;28;20196;-77
2021/04/05 12:52:38;;;;;;;3.63;1.20;;;7.40;99.90;;;;;;4976925;28;20223;-77
2021/04/05 12:55:14;;;;;;;1.53;0.80;;;7.50;99.90;;;;;;4963674;28;20187;-78
2021/04/05 12:57:40;;;;;;;4.27;1.03;;;7.70;99.90;;;;;;4964210;28;20180;-79
2021/04/05 13:00:18;;;;;;;3.80;0.80;;;7.70;99.90;;;;;;4979426;28;20597;-78
2021/04/05 13:02:57;;;;;;;3.90;0.80;;;7.90;99.90;;;;;;4981220;28;20184;-79
2021/04/05 13:05:29;;;;;;;2.07;0.90;;;8.20;99.90;;;;;;4963579;28;20184;-78
2021/04/05 13:08:43;;;;;;;2.70;0.83;;;7.80;99.90;;;;;;4978275;28;20235;-76
2021/04/05 13:11:23;;;;;;;1.00;0.50;;;7.10;99.90;;;;;;4921975;29;20221;-77
2021/04/05 13:13:56;;;;;;;2.63;0.70;;;7.20;99.90;;;;;;4937374;29;20224;-77
2021/04/05 13:16:35;;;;;;;4.93;1.03;;;7.40;99.90;;;;;;4949182;28;20199;-78
2021/04/05 13:19:02;;;;;;;1.90;0.77;;;7.20;99.90;;;;;;4961482;28;20192;-75
2021/04/05 13:21:36;;;;;;;1.90;0.70;;;7.10;99.90;;;;;;4961292;28;20181;-77
2021/04/05 13:24:02;;;;;;;2.47;0.60;;;7.00;99.90;;;;;;4961419;28;20258;-79
2021/04/05 13:26:34;;;;;;;1.80;0.83;;;7.00;99.90;;;;;;4960972;28;20218;-78
2021/04/05 13:29:00;;;;;;;2.47;0.70;;;7.10;99.90;;;;;;4993250;28;20170;-77
2021/04/05 13:31:26;;;;;;;3.43;0.73;;;7.20;99.90;;;;;;4978361;28;20172;-78
2021/04/05 13:33:52;;;;;;;2.07;0.40;;;7.20;99.90;;;;;;4978263;28;20200;-78
2021/04/05 13:36:18;;;;;;;2.30;0.60;;;7.10;99.90;;;;;;4961982;28;20184;-78
2021/04/05 13:38:50;;;;;;;3.70;0.87;;;6.80;99.90;;;;;;4977524;28;20199;-78
2021/04/05 13:41:18;;;;;;;1.00;0.53;;;7.00;99.90;;;;;;4962245;28;20222;-78
2021/04/05 13:43:46;;;;;;;1.63;0.60;;;6.80;99.90;;;;;;4977271;28;20239;-77